Time;durP1;ratioP1;P1;durP2;ratioP2;P2;SDS_P1;SDS_P2;PMS_P1;PMS_P2;Temp;Humidity;BMP_temperature;BMP_pressure;BME280_temperature;BME280_humidity;BME280_pressure;Samples;Min_cycle;Max_cycle;Signal;HPM_P1;HPM_P2
2021/12/25 00:00:55;;;;;;;11.70;3.10;;;6.50;99.90;;;;;;5093348;28;20444;-72
2021/12/25 00:03:21;;;;;;;8.55;2.53;;;6.40;99.90;;;;;;5093253;28;20024;-73
2021/12/25 00:05:52;;;;;;;11.38;3.00;;;6.30;99.90;;;;;;5093540;28;20031;-73
2021/12/25 00:08:18;;;;;;;8.80;2.72;;;6.40;99.90;;;;;;5075404;28;20027;-74
2021/12/25 00:10:44;;;;;;;10.10;2.30;;;6.30;99.90;;;;;;5075075;28;20425;-74
2021/12/25 00:13:09;;;;;;;8.85;2.25;;;6.40;99.90;;;;;;5092959;28;20052;-73
2021/12/25 00:15:35;;;;;;;7.05;2.42;;;6.40;99.90;;;;;;5092993;28;20028;-73
2021/12/25 00:18:00;;;;;;;8.20;2.47;;;6.30;99.90;;;;;;5093180;28;20032;-74
2021/12/25 00:20:26;;;;;;;7.35;2.30;;;6.20;99.90;;;;;;5093095;28;20060;-74
2021/12/25 00:22:52;;;;;;;10.45;2.78;;;6.20;99.90;;;;;;5093079;28;20116;-74
2021/12/25 00:25:19;;;;;;;7.88;2.67;;;6.20;99.90;;;;;;5092794;28;20506;-74
2021/12/25 00:30:38;;;;;;;5.60;2.42;;;6.30;99.90;;;;;;5092986;28;20031;-74
2021/12/25 00:33:17;;;;;;;11.40;2.97;;;6.30;99.90;;;;;;5092723;28;20024;-74
2021/12/25 00:35:43;;;;;;;5.40;2.00;;;6.20;99.90;;;;;;5093044;28;20114;-74
2021/12/25 00:38:08;;;;;;;7.53;2.35;;;6.20;99.90;;;;;;5093481;28;20089;-73
2021/12/25 00:40:34;;;;;;;7.63;2.55;;;6.10;99.90;;;;;;5092624;28;20027;-73
2021/12/25 00:43:00;;;;;;;6.70;2.53;;;6.10;99.90;;;;;;5092945;28;20027;-73
2021/12/25 00:45:25;;;;;;;6.90;2.38;;;6.00;99.90;;;;;;5074688;28;20024;-73
2021/12/25 00:47:51;;;;;;;10.65;2.30;;;6.00;99.90;;;;;;5074758;28;20016;-73
2021/12/25 00:50:17;;;;;;;7.18;2.40;;;6.00;99.90;;;;;;5092807;28;20437;-73
2021/12/25 00:52:43;;;;;;;11.57;2.33;;;6.00;99.90;;;;;;5092882;28;20024;-73
2021/12/25 00:55:09;;;;;;;6.30;2.00;;;6.00;99.90;;;;;;5092725;28;20071;-73
2021/12/25 00:57:35;;;;;;;5.05;1.88;;;6.00;99.90;;;;;;5092957;28;20099;-72
2021/12/25 01:00:02;;;;;;;5.57;2.17;;;6.00;99.90;;;;;;5074286;28;20024;-72
2021/12/25 01:02:27;;;;;;;6.28;1.83;;;6.00;99.90;;;;;;5077833;28;20028;-73
2021/12/25 01:04:53;;;;;;;7.65;2.00;;;5.90;99.90;;;;;;5096583;28;20020;-72
2021/12/25 01:07:19;;;;;;;5.15;1.85;;;5.80;99.90;;;;;;5096295;28;20024;-72
2021/12/25 01:09:44;;;;;;;5.35;1.50;;;5.70;99.90;;;;;;5096929;28;20456;-72
2021/12/25 01:12:11;;;;;;;10.15;2.58;;;5.80;99.90;;;;;;5078465;28;20069;-72
2021/12/25 01:14:46;;;;;;;6.60;2.00;;;5.80;99.90;;;;;;5096407;28;20048;-73
2021/12/25 01:30:00;;;;;;;9.90;2.67;;;5.40;99.90;;;;;;5095930;28;20038;-72
2021/12/25 01:40:44;;;;;;;7.72;2.63;;;5.40;99.90;;;;;;5096533;28;20162;-72
2021/12/25 01:48:39;;;;;;;7.25;2.75;;;5.40;99.90;;;;;;5096113;28;20067;-72
2021/12/25 01:51:06;;;;;;;13.75;3.97;;;5.40;99.90;;;;;;5095793;28;20023;-71
2021/12/25 01:53:32;;;;;;;7.82;2.80;;;5.40;99.90;;;;;;5095365;28;20397;-74
2021/12/25 01:56:01;;;;;;;8.73;2.83;;;5.30;99.90;;;;;;5096064;28;20043;-74
2021/12/25 01:58:27;;;;;;;11.73;3.72;;;5.30;99.90;;;;;;5095335;28;20139;-74
2021/12/25 02:00:56;;;;;;;11.32;3.15;;;5.20;99.90;;;;;;5095614;28;20023;-74
2021/12/25 02:03:24;;;;;;;11.63;3.13;;;5.30;99.90;;;;;;5077184;28;20024;-74
2021/12/25 02:05:50;;;;;;;12.18;3.50;;;5.30;99.90;;;;;;5095953;28;20028;-73
2021/12/25 02:08:16;;;;;;;9.25;3.00;;;5.30;99.90;;;;;;5095164;28;20182;-72
2021/12/25 02:10:42;;;;;;;9.43;3.50;;;5.30;99.90;;;;;;5095069;28;20023;-72
2021/12/25 02:13:09;;;;;;;14.10;3.38;;;5.20;99.90;;;;;;5095385;28;20028;-72
2021/12/25 02:15:36;;;;;;;9.75;3.22;;;5.20;99.90;;;;;;5095573;28;20031;-74
2021/12/25 02:20:42;;;;;;;6.70;2.75;;;5.10;99.90;;;;;;5095225;28;20070;-72
2021/12/25 02:23:21;;;;;;;12.80;3.53;;;5.10;99.90;;;;;;5095226;28;20023;-72
2021/12/25 02:25:48;;;;;;;12.27;3.83;;;5.10;99.90;;;;;;5076968;28;20445;-72
2021/12/25 02:28:15;;;;;;;13.27;4.10;;;5.10;99.90;;;;;;5094686;28;20028;-72
2021/12/25 02:30:43;;;;;;;10.73;3.40;;;5.10;99.90;;;;;;5094650;28;20073;-72
2021/12/25 02:33:09;;;;;;;13.82;4.88;;;5.10;99.90;;;;;;5094965;28;20020;-72
2021/12/25 02:35:34;;;;;;;16.30;4.60;;;5.00;99.90;;;;;;5095293;28;20027;-74
2021/12/25 02:38:01;;;;;;;14.82;4.10;;;4.90;99.90;;;;;;5095342;28;20036;-72
2021/12/25 02:40:26;;;;;;;17.58;4.47;;;4.90;99.90;;;;;;5076427;28;20027;-73
2021/12/25 02:42:52;;;;;;;15.05;4.72;;;4.90;99.90;;;;;;5076630;28;20028;-73
2021/12/25 02:45:20;;;;;;;14.80;4.53;;;4.90;99.90;;;;;;5094773;28;20444;-73
2021/12/25 02:47:49;;;;;;;12.13;3.95;;;4.90;99.90;;;;;;5094590;28;20028;-73
2021/12/25 02:50:29;;;;;;;20.30;4.88;;;5.00;99.90;;;;;;5094604;28;20045;-73
2021/12/25 02:52:58;;;;;;;16.52;4.53;;;4.90;99.90;;;;;;5095121;28;20024;-72
2021/12/25 02:55:24;;;;;;;14.05;4.50;;;4.80;99.90;;;;;;5094062;28;20422;-73
2021/12/25 02:57:52;;;;;;;12.18;3.35;;;4.80;99.90;;;;;;5076287;28;20498;-72
2021/12/25 03:00:30;;;;;;;19.27;4.38;;;4.80;99.90;;;;;;5076441;28;20031;-72
2021/12/25 03:02:56;;;;;;;20.13;4.25;;;4.90;99.90;;;;;;5094391;28;20020;-72
2021/12/25 03:05:22;;;;;;;17.40;4.13;;;4.80;99.90;;;;;;5076931;28;20446;-72
2021/12/25 03:07:48;;;;;;;14.50;4.07;;;4.70;99.90;;;;;;5094782;28;20518;-72
2021/12/25 03:10:16;;;;;;;12.82;3.75;;;4.70;99.90;;;;;;5094303;28;20020;-73
2021/12/25 03:13:16;;;;;;;14.40;3.33;;;4.80;99.90;;;;;;5093809;28;20074;-74
2021/12/25 03:15:46;;;;;;;14.00;3.90;;;4.70;99.90;;;;;;5094028;28;20032;-74
2021/12/25 03:18:12;;;;;;;;;;;4.70;99.90;;;;;;5095163;28;20028;-74
2021/12/25 03:20:44;;;;;;;16.77;3.70;;;4.70;99.90;;;;;;5094008;28;19999;-74
2021/12/25 03:23:18;;;;;;;14.52;4.55;;;4.60;99.90;;;;;;5094137;28;20513;-74
2021/12/25 03:25:46;;;;;;;12.90;4.10;;;4.70;99.90;;;;;;5092468;28;20423;-74
2021/12/25 03:28:13;;;;;;;14.32;3.72;;;4.60;99.90;;;;;;5093637;28;20024;-73
2021/12/25 03:30:39;;;;;;;13.38;3.10;;;4.60;99.90;;;;;;5093510;28;20111;-74
2021/12/25 03:33:11;;;;;;;19.38;4.25;;;4.60;99.90;;;;;;5093830;28;20495;-73
2021/12/25 03:35:37;;;;;;;9.10;3.30;;;4.60;99.90;;;;;;5093656;28;20028;-73
2021/12/25 03:38:04;;;;;;;10.57;3.42;;;4.60;99.90;;;;;;5093754;28;20350;-74
2021/12/25 03:40:31;;;;;;;14.40;3.63;;;4.60;99.90;;;;;;5094274;28;20107;-74
2021/12/25 03:42:57;;;;;;;14.75;3.85;;;4.50;99.90;;;;;;5093728;28;20020;-73
2021/12/25 03:45:23;;;;;;;15.10;4.18;;;4.40;99.90;;;;;;5075502;28;20031;-73
2021/12/25 03:47:51;;;;;;;8.85;2.90;;;4.30;99.90;;;;;;5093536;28;20024;-73
2021/12/25 03:53:12;;;;;;;12.75;3.50;;;4.30;99.90;;;;;;5093611;28;20028;-72
2021/12/25 03:58:28;;;;;;;11.57;3.50;;;4.30;99.90;;;;;;5093456;28;20043;-74
2021/12/25 04:01:00;;;;;;;11.35;3.38;;;4.40;99.90;;;;;;5093922;28;20065;-73
2021/12/25 04:03:48;;;;;;;9.13;3.00;;;4.40;99.90;;;;;;5093919;28;20020;-73
2021/12/25 04:06:13;;;;;;;13.00;3.40;;;4.40;99.90;;;;;;5075122;28;20032;-73
2021/12/25 04:08:45;;;;;;;11.90;3.33;;;4.40;99.90;;;;;;5093661;28;20032;-74
2021/12/25 04:11:15;;;;;;;12.70;3.25;;;4.40;99.90;;;;;;5093363;28;20017;-74
2021/12/25 04:13:41;;;;;;;6.47;2.77;;;4.40;99.90;;;;;;5093437;28;20032;-74
2021/12/25 04:16:07;;;;;;;8.55;2.70;;;4.40;99.90;;;;;;5093177;28;20123;-73
2021/12/25 04:18:32;;;;;;;6.35;2.63;;;4.40;99.90;;;;;;5093075;28;20080;-74
2021/12/25 04:20:58;;;;;;;9.80;2.95;;;4.40;99.90;;;;;;5093145;28;20057;-72
2021/12/25 04:23:27;;;;;;;7.43;2.72;;;4.30;99.90;;;;;;5093031;28;20024;-72
2021/12/25 04:25:58;;;;;;;9.13;2.80;;;4.30;99.90;;;;;;5074295;28;20059;-72
2021/12/25 04:28:39;;;;;;;8.68;2.47;;;4.30;99.90;;;;;;5093719;28;20028;-72
2021/12/25 05:05:53;;;;;;;6.00;2.33;;;4.00;99.90;;;;;;5096557;28;20028;-73
2021/12/25 05:08:19;;;;;;;5.30;2.20;;;4.00;99.90;;;;;;5097113;28;20023;-72
2021/12/25 05:10:45;;;;;;;6.63;2.10;;;3.90;99.90;;;;;;5096223;28;20421;-72
2021/12/25 05:13:11;;;;;;;5.47;1.90;;;3.80;99.90;;;;;;5078343;28;20115;-72
2021/12/25 05:15:36;;;;;;;4.10;1.90;;;3.80;99.90;;;;;;5096307;28;20145;-72
2021/12/25 05:18:02;;;;;;;6.60;2.00;;;3.80;99.90;;;;;;5078155;28;20119;-72
2021/12/25 05:20:28;;;;;;;5.50;1.40;;;3.80;99.90;;;;;;5096962;28;20024;-72
2021/12/25 05:22:54;;;;;;;3.80;1.95;;;3.80;99.90;;;;;;5096256;28;20031;-73
2021/12/25 05:25:19;;;;;;;6.93;2.00;;;3.80;99.90;;;;;;5096514;28;20052;-73
2021/12/25 05:27:46;;;;;;;5.38;1.67;;;3.80;99.90;;;;;;5095886;28;20059;-73
2021/12/25 05:30:12;;;;;;;2.92;1.45;;;3.80;99.90;;;;;;5078049;28;20020;-73
2021/12/25 05:32:38;;;;;;;2.90;1.23;;;3.80;99.90;;;;;;5096134;28;20024;-73
2021/12/25 05:35:04;;;;;;;2.88;1.23;;;3.80;99.90;;;;;;5096101;28;20035;-73
2021/12/25 05:37:31;;;;;;;3.70;1.52;;;3.80;99.90;;;;;;5078596;28;20027;-73
2021/12/25 05:39:57;;;;;;;2.35;1.23;;;3.80;99.90;;;;;;5096167;28;20452;-73
2021/12/25 05:42:23;;;;;;;4.18;1.23;;;3.80;99.90;;;;;;5096006;28;20043;-73
2021/12/25 05:44:50;;;;;;;2.47;1.30;;;3.60;99.90;;;;;;5077621;28;20032;-73
2021/12/25 05:47:16;;;;;;;2.95;1.10;;;3.50;99.90;;;;;;5076917;28;20476;-73
2021/12/25 05:49:42;;;;;;;3.78;1.30;;;3.50;99.90;;;;;;5077301;28;20115;-74
2021/12/25 05:52:08;;;;;;;2.63;1.30;;;3.50;99.90;;;;;;5096556;28;20071;-73
2021/12/25 05:54:34;;;;;;;2.15;1.25;;;3.40;99.90;;;;;;5095720;28;20020;-73
2021/12/25 05:57:01;;;;;;;1.77;1.10;;;3.30;99.90;;;;;;5095590;28;20039;-72
2021/12/25 05:59:26;;;;;;;2.33;1.20;;;3.30;99.90;;;;;;5095689;28;20042;-72
2021/12/25 06:01:52;;;;;;;1.85;1.15;;;3.30;99.90;;;;;;5095601;28;20024;-72
2021/12/25 06:04:18;;;;;;;2.00;0.95;;;3.10;99.90;;;;;;5095340;28;20052;-73
2021/12/25 06:06:43;;;;;;;3.58;1.35;;;3.00;99.90;;;;;;5095211;28;20473;-75
2021/12/25 06:09:09;;;;;;;2.33;1.08;;;3.00;99.90;;;;;;5095432;28;20089;-72
2021/12/25 06:11:37;;;;;;;1.80;1.15;;;3.00;99.90;;;;;;5077939;28;20027;-72
2021/12/25 06:14:16;;;;;;;1.80;1.10;;;3.00;99.90;;;;;;5095073;28;20349;-72
2021/12/25 06:16:42;;;;;;;2.85;1.23;;;3.00;99.90;;;;;;5076938;28;20024;-72
2021/12/25 06:19:07;;;;;;;3.00;1.40;;;3.00;99.90;;;;;;5077613;28;20128;-72
2021/12/25 06:21:33;;;;;;;2.63;1.20;;;3.00;99.90;;;;;;5095243;28;20020;-72
2021/12/25 06:24:01;;;;;;;3.25;1.42;;;2.90;99.90;;;;;;5076708;28;20040;-72
2021/12/25 06:26:27;;;;;;;2.05;1.23;;;2.90;99.90;;;;;;5095457;28;20026;-73
2021/12/25 06:28:54;;;;;;;1.45;0.80;;;2.90;99.90;;;;;;5095057;28;20111;-73
2021/12/25 06:31:19;;;;;;;3.53;1.38;;;2.80;99.90;;;;;;5095033;28;20033;-72
2021/12/25 06:33:45;;;;;;;4.68;1.60;;;2.80;99.90;;;;;;5094943;28;20376;-74
2021/12/25 06:36:11;;;;;;;2.40;1.05;;;2.80;99.90;;;;;;5076903;28;20103;-73
2021/12/25 06:38:39;;;;;;;3.05;1.23;;;2.80;99.90;;;;;;5095434;28;20069;-73
2021/12/25 06:41:04;;;;;;;2.72;1.35;;;2.70;99.90;;;;;;5094904;28;20106;-73
2021/12/25 06:43:30;;;;;;;2.20;1.20;;;2.70;99.90;;;;;;5076861;28;20161;-73
2021/12/25 06:45:56;;;;;;;1.65;1.20;;;2.70;99.90;;;;;;5094475;28;20028;-72
2021/12/25 06:48:22;;;;;;;4.32;1.50;;;2.70;99.90;;;;;;5094415;28;20020;-73
2021/12/25 06:50:47;;;;;;;3.70;1.70;;;2.70;99.90;;;;;;5094568;28;20051;-73
2021/12/25 06:53:13;;;;;;;6.15;1.42;;;2.60;99.90;;;;;;5094641;28;20020;-73
2021/12/25 06:55:39;;;;;;;3.70;1.50;;;2.60;99.90;;;;;;5094532;28;20110;-73
2021/12/25 06:58:05;;;;;;;3.15;1.38;;;2.60;99.90;;;;;;5076344;28;20031;-73
2021/12/25 07:00:30;;;;;;;4.57;1.83;;;2.60;99.90;;;;;;5094244;28;20428;-73
2021/12/25 07:02:57;;;;;;;3.40;1.58;;;2.60;99.90;;;;;;5094330;28;20016;-73
2021/12/25 07:05:23;;;;;;;4.43;1.58;;;2.70;99.90;;;;;;5076874;28;20364;-72
2021/12/25 07:07:49;;;;;;;3.55;1.60;;;2.70;99.90;;;;;;5094520;28;20074;-73
2021/12/25 07:10:15;;;;;;;3.25;1.60;;;2.70;99.90;;;;;;5094285;28;20072;-73
2021/12/25 07:12:45;;;;;;;1.80;1.40;;;2.70;99.90;;;;;;5094139;28;20020;-74
2021/12/25 07:15:11;;;;;;;3.10;1.45;;;2.60;99.90;;;;;;5094153;28;20023;-73
2021/12/25 07:17:37;;;;;;;2.65;1.55;;;2.50;99.90;;;;;;5075672;28;20039;-73
2021/12/25 07:20:03;;;;;;;1.83;1.20;;;2.40;99.90;;;;;;5094077;28;20024;-72
2021/12/25 07:22:30;;;;;;;5.35;2.35;;;2.30;99.90;;;;;;5094346;28;20027;-72
2021/12/25 07:24:56;;;;;;;4.65;1.80;;;2.20;99.90;;;;;;5094398;28;20364;-72
2021/12/25 07:27:22;;;;;;;4.22;1.70;;;2.20;99.90;;;;;;5093966;28;20034;-72
2021/12/25 07:29:48;;;;;;;2.22;1.33;;;2.20;99.90;;;;;;5093448;28;20016;-73
2021/12/25 07:32:14;;;;;;;5.10;1.80;;;2.20;99.90;;;;;;5094418;28;20020;-73
2021/12/25 07:34:40;;;;;;;4.60;1.42;;;2.20;99.90;;;;;;5093821;28;20383;-72
2021/12/25 07:37:06;;;;;;;3.05;1.58;;;2.10;99.90;;;;;;5075462;28;20020;-73
2021/12/25 07:39:32;;;;;;;3.40;1.65;;;2.00;99.90;;;;;;5093702;28;20047;-73
2021/12/25 07:41:58;;;;;;;2.67;1.25;;;2.00;99.90;;;;;;5075371;28;20020;-74
2021/12/25 07:44:24;;;;;;;2.38;1.40;;;2.00;99.90;;;;;;5075703;28;20031;-74
2021/12/25 07:46:51;;;;;;;2.90;1.38;;;2.00;99.90;;;;;;5075399;28;20031;-74
2021/12/25 07:49:19;;;;;;;2.40;1.25;;;2.00;99.90;;;;;;5094062;28;20106;-74
2021/12/25 07:51:46;;;;;;;4.05;1.50;;;2.00;99.90;;;;;;5074964;28;20476;-75
2021/12/25 07:54:12;;;;;;;3.63;1.65;;;2.00;99.90;;;;;;5094231;28;20472;-75
2021/12/25 07:56:38;;;;;;;2.95;1.52;;;2.00;99.90;;;;;;5093420;28;20058;-74
2021/12/25 07:59:04;;;;;;;2.17;1.23;;;2.00;99.90;;;;;;5093416;28;20080;-74
2021/12/25 08:01:32;;;;;;;5.53;1.80;;;2.00;99.90;;;;;;5093353;28;20028;-73
2021/12/25 08:03:58;;;;;;;3.90;1.50;;;1.90;99.90;;;;;;5075101;28;20031;-74
2021/12/25 08:06:23;;;;;;;2.92;1.52;;;1.80;99.90;;;;;;5093382;28;20376;-74
2021/12/25 08:08:54;;;;;;;4.70;2.00;;;1.80;99.90;;;;;;5075043;28;20460;-74
2021/12/25 08:11:20;;;;;;;4.03;1.75;;;1.70;99.90;;;;;;5074499;28;20024;-74
2021/12/25 08:13:45;;;;;;;2.42;1.60;;;1.70;99.90;;;;;;5093247;28;20028;-74
2021/12/25 08:16:11;;;;;;;5.57;2.40;;;1.70;99.90;;;;;;5093733;28;20024;-74
2021/12/25 08:18:37;;;;;;;4.07;1.80;;;1.50;99.90;;;;;;5092885;28;20067;-73
2021/12/25 08:21:04;;;;;;;4.13;1.70;;;1.50;99.90;;;;;;5093080;28;20024;-73
2021/12/25 08:23:31;;;;;;;5.38;2.00;;;1.50;99.90;;;;;;5075095;28;20043;-73
2021/12/25 08:25:56;;;;;;;2.58;1.58;;;1.50;99.90;;;;;;5074630;28;20048;-73
2021/12/25 08:28:22;;;;;;;3.38;1.60;;;1.50;99.90;;;;;;5093080;28;20025;-74
2021/12/25 08:30:47;;;;;;;4.18;1.90;;;1.50;99.90;;;;;;5093007;28;20107;-74
2021/12/25 08:33:13;;;;;;;3.80;1.58;;;1.40;99.90;;;;;;5093019;28;20031;-74
2021/12/25 08:35:39;;;;;;;3.92;1.45;;;1.40;99.90;;;;;;5074888;28;20032;-74
2021/12/25 08:38:04;;;;;;;2.40;1.27;;;1.30;99.90;;;;;;5074794;28;20380;-74
2021/12/25 08:40:30;;;;;;;4.75;1.60;;;1.30;99.90;;;;;;5092557;28;20073;-74
2021/12/25 08:43:00;;;;;;;2.47;1.30;;;1.20;99.90;;;;;;5092916;28;20017;-72
2021/12/25 08:48:03;;;;;;;2.42;1.45;;;1.10;99.90;;;;;;5092864;28;20083;-73
2021/12/25 08:50:28;;;;;;;2.60;1.38;;;1.10;99.90;;;;;;5092867;28;20028;-73
2021/12/25 08:52:54;;;;;;;2.88;1.35;;;1.10;99.90;;;;;;5093032;28;20020;-72
2021/12/25 08:55:20;;;;;;;1.77;1.10;;;1.00;99.90;;;;;;5074818;28;20028;-72
2021/12/25 08:57:45;;;;;;;2.03;1.00;;;1.00;99.90;;;;;;5092803;28;20101;-72
2021/12/25 09:00:12;;;;;;;1.40;0.98;;;1.00;99.90;;;;;;5092712;28;20020;-73
2021/12/25 09:02:37;;;;;;;3.28;1.23;;;1.00;99.90;;;;;;5075419;28;20286;-73
2021/12/25 09:05:04;;;;;;;2.10;1.17;;;1.00;99.90;;;;;;5092389;28;20031;-73
2021/12/25 09:07:30;;;;;;;1.38;0.90;;;1.10;99.90;;;;;;5092782;28;20056;-72
2021/12/25 09:09:56;;;;;;;1.52;1.10;;;1.10;99.90;;;;;;5092318;28;20055;-73
2021/12/25 09:12:23;;;;;;;2.17;1.00;;;1.10;99.90;;;;;;5074426;28;20024;-73
2021/12/25 09:14:49;;;;;;;2.85;1.15;;;1.10;99.90;;;;;;5092543;28;20056;-73
2021/12/25 09:17:15;;;;;;;3.33;0.85;;;1.20;99.90;;;;;;5092484;28;20066;-72
2021/12/25 09:19:42;;;;;;;1.25;0.95;;;1.20;99.90;;;;;;5074534;28;20024;-72
2021/12/25 09:22:09;;;;;;;0.95;0.82;;;1.20;99.90;;;;;;5093987;28;20056;-73
2021/12/25 09:24:35;;;;;;;3.17;1.10;;;1.20;99.90;;;;;;5077962;28;20126;-73
2021/12/25 09:27:02;;;;;;;2.08;0.82;;;1.20;99.90;;;;;;5096124;28;20028;-73
2021/12/25 09:29:27;;;;;;;1.67;0.90;;;1.30;99.90;;;;;;5096126;28;20032;-73
2021/12/25 09:31:54;;;;;;;0.70;0.70;;;1.20;99.90;;;;;;5096429;28;20024;-72
2021/12/25 09:34:19;;;;;;;1.25;0.90;;;1.20;99.90;;;;;;5096265;28;20024;-72
2021/12/25 09:36:45;;;;;;;1.13;0.93;;;1.10;99.90;;;;;;5096076;28;20122;-73
2021/12/25 09:39:11;;;;;;;1.77;0.95;;;1.10;99.90;;;;;;5078428;28;20047;-72
2021/12/25 09:41:37;;;;;;;1.13;0.90;;;1.20;99.90;;;;;;5096079;28;20024;-72
2021/12/25 09:44:05;;;;;;;1.10;1.00;;;1.20;99.90;;;;;;5095778;28;20035;-72
2021/12/25 09:46:30;;;;;;;0.75;0.75;;;1.20;99.90;;;;;;5095976;28;20099;-72
2021/12/25 09:48:57;;;;;;;1.13;0.73;;;1.30;99.90;;;;;;5095685;28;20192;-73
2021/12/25 09:51:23;;;;;;;0.80;0.80;;;1.30;99.90;;;;;;5095785;28;20047;-73
2021/12/25 09:54:07;;;;;;;1.73;1.00;;;1.20;99.90;;;;;;5095776;28;20020;-73
2021/12/25 09:56:35;;;;;;;1.05;0.80;;;1.30;99.90;;;;;;5096120;28;20027;-71
2021/12/25 09:59:01;;;;;;;0.90;0.68;;;1.20;99.90;;;;;;5095383;28;20024;-72
2021/12/25 10:01:40;;;;;;;0.70;0.70;;;1.30;99.90;;;;;;5095586;28;20031;-74
2021/12/25 10:04:08;;;;;;;1.77;0.80;;;1.40;99.90;;;;;;5095578;28;20024;-73
2021/12/25 10:06:37;;;;;;;0.85;0.70;;;1.40;99.90;;;;;;5095547;28;20024;-72
2021/12/25 10:09:26;;;;;;;1.00;0.70;;;1.40;99.90;;;;;;5095574;28;20020;-78
2021/12/25 10:12:09;;;;;;;0.85;0.60;;;1.40;99.90;;;;;;5076827;28;20073;-78
2021/12/25 10:14:40;;;;;;;1.00;0.90;;;1.40;99.90;;;;;;5095280;28;20460;-78
2021/12/25 10:17:27;;;;;;;1.58;0.80;;;1.30;99.90;;;;;;5094979;28;20103;-79
2021/12/25 10:20:12;;;;;;;2.17;1.00;;;1.40;99.90;;;;;;5095194;28;20028;-75
2021/12/25 10:22:57;;;;;;;0.60;0.60;;;1.40;99.90;;;;;;5077141;28;20031;-76
2021/12/25 10:25:24;;;;;;;0.93;0.82;;;1.50;99.90;;;;;;5093621;28;20131;-79
2021/12/25 10:27:53;;;;;;;2.05;1.13;;;1.50;99.90;;;;;;5094763;28;20024;-77
2021/12/25 10:30:21;;;;;;;1.80;0.75;;;1.60;99.90;;;;;;5094149;28;20031;-77
2021/12/25 10:32:48;;;;;;;0.85;0.80;;;1.60;99.90;;;;;;5094243;28;20028;-78
2021/12/25 10:35:25;;;;;;;1.13;0.70;;;1.60;99.90;;;;;;5093161;28;20106;-78
2021/12/25 10:37:51;;;;;;;1.95;0.90;;;1.50;99.90;;;;;;5094061;28;20456;-78
2021/12/25 10:40:25;;;;;;;0.70;0.70;;;1.50;99.90;;;;;;5094101;28;20433;-86
2021/12/25 10:42:51;;;;;;;0.90;0.82;;;1.50;99.90;;;;;;5093921;28;20116;-79
2021/12/25 10:45:17;;;;;;;1.27;0.70;;;1.50;99.90;;;;;;5075426;28;20012;-78
2021/12/25 10:47:43;;;;;;;4.05;0.80;;;1.60;99.90;;;;;;5093765;28;20026;-78
2021/12/25 10:50:13;;;;;;;0.75;0.60;;;1.60;99.90;;;;;;5093579;28;20440;-79
2021/12/25 10:52:42;;;;;;;1.15;0.77;;;1.60;99.90;;;;;;5093960;28;20078;-77
2021/12/25 10:55:18;;;;;;;0.60;0.60;;;1.70;99.90;;;;;;5075060;28;20048;-77
2021/12/25 10:57:47;;;;;;;0.75;0.75;;;1.80;99.90;;;;;;5093723;28;20028;-77
2021/12/25 11:00:20;;;;;;;3.00;0.90;;;1.80;99.90;;;;;;5075477;28;20102;-78
2021/12/25 11:02:53;;;;;;;0.98;0.70;;;1.80;99.90;;;;;;5075635;28;20448;-77
2021/12/25 11:05:23;;;;;;;1.40;0.90;;;1.90;99.90;;;;;;5093697;28;20104;-78
2021/12/25 11:08:13;;;;;;;1.70;0.90;;;1.90;99.90;;;;;;5075153;28;20050;-79
2021/12/25 11:10:55;;;;;;;1.77;1.10;;;2.00;99.90;;;;;;5093367;28;20084;-80
2021/12/25 11:13:30;;;;;;;0.73;0.65;;;2.00;99.90;;;;;;5093624;28;20095;-80
2021/12/25 11:16:05;;;;;;;1.55;0.80;;;2.00;99.90;;;;;;5075056;28;20080;-79
2021/12/25 11:18:48;;;;;;;1.00;0.73;;;2.10;99.90;;;;;;5093289;28;20034;-80
2021/12/25 11:21:14;;;;;;;2.92;0.90;;;2.20;99.90;;;;;;5093164;28;20043;-80
2021/12/25 11:23:41;;;;;;;0.77;0.77;;;2.30;99.90;;;;;;5093397;28;20421;-80
2021/12/25 11:26:07;;;;;;;0.95;0.85;;;2.30;99.90;;;;;;5075257;28;20028;-80
2021/12/25 11:28:33;;;;;;;1.00;0.77;;;2.30;99.90;;;;;;5093027;28;20354;-79
2021/12/25 11:30:59;;;;;;;1.55;0.95;;;2.50;99.90;;;;;;5074591;28;20012;-79
2021/12/25 11:33:25;;;;;;;1.80;0.77;;;2.60;99.90;;;;;;5075164;28;20107;-78
2021/12/25 11:35:50;;;;;;;0.68;0.63;;;2.70;99.90;;;;;;5092712;28;20031;-77
2021/12/25 11:38:16;;;;;;;1.40;0.93;;;2.70;99.90;;;;;;5093084;28;20032;-75
2021/12/25 11:40:49;;;;;;;1.38;0.70;;;2.80;99.90;;;;;;5074547;28;20023;-75
2021/12/25 11:43:15;;;;;;;1.17;0.68;;;2.80;99.90;;;;;;5092618;28;20457;-75
2021/12/25 11:45:49;;;;;;;2.50;0.82;;;2.90;99.90;;;;;;5091784;28;20431;-74
2021/12/25 11:48:16;;;;;;;1.15;0.80;;;2.90;99.90;;;;;;5093106;28;20498;-76
2021/12/25 11:50:46;;;;;;;0.88;0.82;;;2.90;99.90;;;;;;5093160;28;20035;-76
2021/12/25 11:53:40;;;;;;;0.70;0.70;;;2.90;99.90;;;;;;5074257;28;20031;-76
2021/12/25 11:58:50;;;;;;;0.90;0.85;;;2.80;99.90;;;;;;5092571;28;20559;-76
2021/12/25 12:01:20;;;;;;;2.03;0.80;;;2.80;99.90;;;;;;5092370;28;20103;-76
2021/12/25 12:03:52;;;;;;;2.05;0.85;;;2.80;99.90;;;;;;5092796;28;20095;-76
2021/12/25 12:06:18;;;;;;;0.70;0.70;;;2.80;99.90;;;;;;5074213;28;20020;-77
2021/12/25 12:08:53;;;;;;;0.60;0.60;;;2.80;99.90;;;;;;5074544;28;20048;-76
2021/12/25 12:11:27;;;;;;;1.58;0.80;;;2.80;99.90;;;;;;5074059;28;20452;-76
2021/12/25 12:14:12;;;;;;;2.45;0.80;;;2.80;99.90;;;;;;5092366;28;20020;-76
2021/12/25 12:16:41;;;;;;;1.02;0.90;;;2.80;99.90;;;;;;5092388;28;20058;-76
2021/12/25 12:19:29;;;;;;;2.20;0.90;;;2.70;99.90;;;;;;5074058;28;20028;-76
2021/12/25 12:21:55;;;;;;;1.02;0.90;;;2.70;99.90;;;;;;5092065;28;20024;-73
2021/12/25 12:27:04;;;;;;;1.70;0.93;;;2.60;99.90;;;;;;5092114;28;20444;-77
2021/12/25 12:29:38;;;;;;;1.92;0.70;;;2.60;99.90;;;;;;5074642;28;20490;-75
2021/12/25 12:32:26;;;;;;;0.70;0.70;;;2.60;99.90;;;;;;5073842;28;20120;-76
2021/12/25 12:34:53;;;;;;;3.40;0.90;;;2.60;99.90;;;;;;5073159;28;20039;-78
2021/12/25 12:37:23;;;;;;;1.33;0.77;;;2.60;99.90;;;;;;5075383;28;20116;-77
2021/12/25 12:40:01;;;;;;;1.17;0.70;;;2.50;99.90;;;;;;5095421;28;20436;-76
2021/12/25 12:42:43;;;;;;;0.63;0.63;;;2.50;99.90;;;;;;5092823;28;20020;-76
2021/12/25 12:45:14;;;;;;;1.83;0.90;;;2.40;99.90;;;;;;5074553;28;20028;-77
2021/12/25 12:47:40;;;;;;;2.30;0.68;;;2.40;99.90;;;;;;5073987;28;20480;-77
2021/12/25 12:50:08;;;;;;;1.88;0.80;;;2.40;99.90;;;;;;5092494;28;20016;-76
2021/12/25 12:52:38;;;;;;;1.58;0.90;;;2.40;99.90;;;;;;5074098;28;20440;-78
2021/12/25 12:55:29;;;;;;;0.85;0.70;;;2.40;99.90;;;;;;5073359;28;20030;-77
2021/12/25 12:58:16;;;;;;;1.60;0.90;;;2.40;99.90;;;;;;5094502;28;20159;-77
2021/12/25 13:00:50;;;;;;;2.95;0.80;;;2.30;99.90;;;;;;5078347;28;20503;-76
2021/12/25 13:03:16;;;;;;;0.85;0.80;;;2.30;99.90;;;;;;5077644;28;20040;-75
2021/12/25 13:05:49;;;;;;;0.73;0.70;;;2.30;99.90;;;;;;5077421;28;20020;-74
2021/12/25 13:08:21;;;;;;;1.42;0.80;;;2.30;99.90;;;;;;5077003;28;20039;-75
2021/12/25 13:10:51;;;;;;;1.38;0.70;;;2.30;99.90;;;;;;5095868;28;20028;-78
2021/12/25 13:13:24;;;;;;;0.70;0.70;;;2.30;99.90;;;;;;5077845;28;20096;-77
2021/12/25 13:15:58;;;;;;;0.82;0.70;;;2.20;99.90;;;;;;5077171;28;20139;-76
2021/12/25 13:18:33;;;;;;;3.63;0.82;;;2.20;99.90;;;;;;5077803;28;20039;-77
2021/12/25 13:21:00;;;;;;;1.55;0.93;;;2.20;99.90;;;;;;5095970;28;20522;-75
2021/12/25 13:23:32;;;;;;;0.73;0.73;;;2.20;99.90;;;;;;5077365;28;20050;-75
2021/12/25 13:26:01;;;;;;;1.63;0.80;;;2.10;99.90;;;;;;5076482;28;20059;-75
2021/12/25 13:28:30;;;;;;;2.03;0.70;;;2.10;99.90;;;;;;5095451;28;20024;-79
2021/12/25 13:31:24;;;;;;;1.00;0.73;;;2.10;99.90;;;;;;5096100;28;20023;-77
2021/12/25 13:33:50;;;;;;;1.13;0.77;;;2.10;99.90;;;;;;5092673;28;20051;-77
2021/12/25 13:36:21;;;;;;;1.50;0.88;;;2.10;99.90;;;;;;5076740;28;20029;-78
2021/12/25 13:38:58;;;;;;;;;;;2.10;99.90;;;;;;5077669;28;20119;-76
2021/12/25 13:41:36;;;;;;;0.85;0.70;;;2.00;99.90;;;;;;5076573;28;19982;-76
2021/12/25 13:44:06;;;;;;;2.80;0.82;;;2.00;99.90;;;;;;5076740;28;20024;-77
2021/12/25 13:46:49;;;;;;;1.25;0.77;;;2.00;99.90;;;;;;5094860;28;20026;-75
2021/12/25 13:49:28;;;;;;;1.90;0.90;;;1.90;99.90;;;;;;5095014;28;20020;-76
2021/12/25 13:51:54;;;;;;;3.10;0.93;;;1.90;99.90;;;;;;5076803;28;20379;-79
2021/12/25 13:54:20;;;;;;;2.28;0.95;;;1.90;99.90;;;;;;5076747;28;20028;-75
2021/12/25 13:56:51;;;;;;;1.13;0.88;;;1.90;99.90;;;;;;5094783;28;20032;-78
2021/12/25 13:59:18;;;;;;;0.60;0.60;;;1.90;99.90;;;;;;5076596;28;20024;-76
2021/12/25 14:01:44;;;;;;;1.05;0.80;;;1.80;99.90;;;;;;5076767;28;20259;-76
2021/12/25 14:04:12;;;;;;;0.85;0.73;;;1.90;99.90;;;;;;5094656;28;20088;-76
2021/12/25 14:06:38;;;;;;;0.73;0.73;;;1.90;99.90;;;;;;5076554;28;20350;-75
2021/12/25 14:09:05;;;;;;;1.30;0.95;;;1.80;99.90;;;;;;5075431;28;20027;-74
2021/12/25 14:11:32;;;;;;;1.00;0.80;;;1.80;99.90;;;;;;5076913;28;20031;-75
2021/12/25 14:13:58;;;;;;;1.65;0.73;;;1.80;99.90;;;;;;5095764;28;20028;-76
2021/12/25 14:16:24;;;;;;;1.05;0.65;;;1.80;99.90;;;;;;5077006;28;20040;-76
2021/12/25 14:18:50;;;;;;;0.70;0.70;;;1.80;99.90;;;;;;5076635;28;20024;-75
2021/12/25 14:21:21;;;;;;;1.30;1.00;;;1.80;99.90;;;;;;5076391;28;20023;-75
2021/12/25 14:23:58;;;;;;;;;;;1.70;99.90;;;;;;5076698;28;20047;-73